Time;durP1;ratioP1;P1;durP2;ratioP2;P2;SDS_P1;SDS_P2;PMS_P1;PMS_P2;Temp;Humidity;BMP_temperature;BMP_pressure;BME280_temperature;BME280_humidity;BME280_pressure;Samples;Min_cycle;Max_cycle;Signal;HPM_P1;HPM_P2
2022/06/14 00:00:54;;;;;;;6.75;2.80;;;;;;;8.20;94.16;102284.66;1045557;28;20296;-84
2022/06/14 00:01:26;;;;;;;3.13;2.28;;;;;;;7.97;94.10;102287.16;1043238;28;20308;-84
2022/06/14 00:01:57;;;;;;;10.75;3.35;;;;;;;7.92;94.67;102288.63;1042906;28;20311;-84
2022/06/14 00:02:29;;;;;;;9.07;3.28;;;;;;;8.00;95.37;102291.31;1043866;28;20327;-84
2022/06/14 00:03:01;;;;;;;7.55;3.00;;;;;;;7.99;95.60;102292.31;1047417;28;20313;-84
2022/06/14 00:03:38;;;;;;;6.43;3.08;;;;;;;8.01;95.84;102292.97;1046425;28;20313;-84
2022/06/14 00:04:10;;;;;;;6.80;3.17;;;;;;;7.82;95.38;102291.44;1051147;28;20310;-83
2022/06/14 00:04:42;;;;;;;6.68;3.15;;;;;;;7.97;96.49;102284.50;1053243;28;20286;-84
2022/06/14 00:05:14;;;;;;;7.70;3.20;;;;;;;8.03;95.93;102288.31;1052028;28;20340;-83
2022/06/14 00:05:46;;;;;;;7.47;3.42;;;;;;;7.83;96.01;102286.94;1044108;28;20303;-84
2022/06/14 00:06:20;;;;;;;9.02;2.97;;;;;;;7.68;96.03;102300.03;1048810;28;20303;-84
2022/06/14 00:06:52;;;;;;;6.43;3.38;;;;;;;7.43;96.57;102289.34;1043591;28;20303;-84
2022/06/14 00:07:24;;;;;;;5.68;3.28;;;;;;;7.32;96.50;102294.06;1043529;28;20784;-83
2022/06/14 00:07:55;;;;;;;4.60;2.70;;;;;;;7.29;97.38;102300.53;1039185;28;20323;-84
2022/06/14 00:08:28;;;;;;;4.60;2.50;;;;;;;7.50;97.35;102297.47;1040065;28;20291;-84
2022/06/14 00:09:00;;;;;;;7.90;3.92;;;;;;;7.42;97.64;102294.78;1040926;28;20308;-84
2022/06/14 00:09:32;;;;;;;7.78;3.47;;;;;;;7.52;97.90;102290.19;1050152;28;20799;-83
2022/06/14 00:10:04;;;;;;;7.95;3.58;;;;;;;7.81;98.04;102299.53;1051764;28;20297;-83
2022/06/14 00:10:35;;;;;;;8.20;3.22;;;;;;;7.70;97.89;102298.88;1049554;28;20298;-84
2022/06/14 00:11:13;;;;;;;10.38;3.55;;;;;;;7.63;97.80;102292.53;1048131;28;20650;-84
2022/06/14 00:11:46;;;;;;;7.32;3.80;;;;;;;7.54;97.28;102301.47;1050558;27;20389;-83
2022/06/14 00:12:18;;;;;;;9.00;3.22;;;;;;;7.68;97.65;102295.56;1055991;28;20305;-84
2022/06/14 00:12:49;;;;;;;9.95;4.15;;;;;;;8.12;97.44;102297.94;1046188;28;20685;-83
2022/06/14 00:13:22;;;;;;;6.93;3.47;;;;;;;8.21;96.86;102296.94;1047369;28;20827;-84
2022/06/14 00:13:55;;;;;;;8.60;3.97;;;;;;;8.32;96.45;102293.97;1050157;28;20309;-84
2022/06/14 00:14:27;;;;;;;6.43;2.80;;;;;;;8.51;95.62;102300.00;1049415;28;20299;-84
2022/06/14 00:14:58;;;;;;;5.10;3.00;;;;;;;8.60;95.07;102296.34;1047490;28;20306;-83
2022/06/14 00:15:30;;;;;;;6.68;3.35;;;;;;;8.67;94.35;102292.84;1050340;28;20305;-84
2022/06/14 00:16:02;;;;;;;9.10;3.60;;;;;;;8.62;94.41;102289.84;1044635;28;20310;-83
2022/06/14 00:16:35;;;;;;;8.05;3.40;;;;;;;8.25;93.72;102293.00;1050747;28;20679;-84
2022/06/14 00:17:06;;;;;;;9.68;3.35;;;;;;;8.05;93.93;102291.63;1047352;28;20363;-84
2022/06/14 00:17:38;;;;;;;11.75;2.90;;;;;;;7.87;94.33;102285.63;1051916;28;20302;-84
2022/06/14 00:18:10;;;;;;;7.45;2.90;;;;;;;8.01;93.96;102290.31;1047735;28;20692;-84
2022/06/14 00:18:42;;;;;;;10.48;3.75;;;;;;;8.01;94.41;102290.31;1047798;28;20321;-84
2022/06/14 00:19:13;;;;;;;7.25;2.88;;;;;;;8.11;93.82;102293.63;1045924;28;20290;-84
2022/06/14 00:19:45;;;;;;;5.82;3.08;;;;;;;8.23;94.27;102292.34;1051178;28;20309;-84
2022/06/14 00:20:16;;;;;;;11.15;3.22;;;;;;;8.38;94.70;102297.00;1051065;28;20298;-84
2022/06/14 00:20:49;;;;;;;7.88;3.28;;;;;;;8.51;93.94;102292.03;1047911;28;20290;-84
2022/06/14 00:21:21;;;;;;;4.82;3.00;;;;;;;8.04;93.68;102296.13;1051862;28;20409;-84
2022/06/14 00:21:52;;;;;;;8.00;2.95;;;;;;;7.77;93.93;102299.03;1055887;28;20305;-84
2022/06/14 00:22:24;;;;;;;7.30;3.00;;;;;;;7.71;93.93;102299.69;1045931;28;20367;-83
2022/06/14 00:22:55;;;;;;;7.75;3.20;;;;;;;7.78;94.08;102305.19;1043393;28;20303;-84
2022/06/14 00:23:27;;;;;;;6.95;2.80;;;;;;;7.67;94.32;102301.84;1047515;28;20732;-83
2022/06/14 00:24:01;;;;;;;11.80;2.90;;;;;;;7.60;94.35;102306.13;1047713;28;20298;-83
2022/06/14 00:24:32;;;;;;;7.90;3.17;;;;;;;7.47;94.76;102303.09;1045314;28;20287;-85
2022/06/14 00:25:05;;;;;;;5.22;2.45;;;;;;;7.37;94.81;102302.38;1043554;28;20310;-84
2022/06/14 00:25:39;;;;;;;6.35;2.60;;;;;;;7.28;95.18;102304.16;1051667;28;20305;-83
2022/06/14 00:26:11;;;;;;;4.95;2.70;;;;;;;7.28;96.08;102303.34;1048864;28;20294;-84
2022/06/14 00:26:43;;;;;;;6.53;3.15;;;;;;;7.32;96.25;102309.97;1051858;28;20298;-83
2022/06/14 00:27:15;;;;;;;9.55;3.38;;;;;;;7.22;96.54;102314.56;1048179;28;20306;-84
2022/06/14 00:27:47;;;;;;;8.48;3.28;;;;;;;7.67;96.47;102309.81;1047570;28;20664;-84
2022/06/14 00:28:19;;;;;;;9.32;3.63;;;;;;;7.80;96.13;102313.81;1043673;28;20294;-84
2022/06/14 00:28:51;;;;;;;8.35;3.50;;;;;;;8.02;96.02;102308.72;1047411;28;20314;-84
2022/06/14 00:29:22;;;;;;;5.05;3.13;;;;;;;8.24;95.58;102311.75;1047299;28;20822;-84
2022/06/14 00:29:56;;;;;;;7.15;3.10;;;;;;;8.26;95.05;102309.75;1056672;27;20393;-84
2022/06/14 00:30:29;;;;;;;8.93;3.40;;;;;;;8.00;94.49;102309.88;1049296;28;20306;-84
2022/06/14 00:31:26;;;;;;;5.65;3.13;;;;;;;7.97;94.32;102311.03;1046717;28;20299;-84
2022/06/14 00:31:58;;;;;;;6.03;2.97;;;;;;;7.77;94.57;102308.81;1047296;28;20688;-83
2022/06/14 00:32:30;;;;;;;4.22;3.35;;;;;;;7.68;94.16;102305.31;1047443;28;20877;-84
2022/06/14 00:33:02;;;;;;;9.63;3.50;;;;;;;7.55;94.53;102304.94;1057969;27;20308;-83
2022/06/14 00:33:34;;;;;;;6.57;2.92;;;;;;;7.82;95.25;102311.81;1051697;28;20404;-83
2022/06/14 00:34:06;;;;;;;7.53;3.40;;;;;;;7.57;95.17;102306.44;1052170;28;20313;-83
2022/06/14 00:34:37;;;;;;;4.68;2.97;;;;;;;7.46;94.63;102300.59;1051802;28;20296;-83
2022/06/14 00:35:15;;;;;;;4.38;2.85;;;;;;;7.39;94.93;102309.16;1050005;28;20287;-83
2022/06/14 00:35:46;;;;;;;10.27;3.75;;;;;;;7.34;95.71;102308.81;1048551;28;20298;-84
2022/06/14 00:36:38;;;;;;;7.97;3.17;;;;;;;7.75;95.76;102309.00;1048871;28;20298;-84
2022/06/14 00:37:15;;;;;;;10.02;3.67;;;;;;;7.93;95.40;102304.38;1041824;28;20444;-84
2022/06/14 00:37:47;;;;;;;12.10;3.78;;;;;;;8.19;95.02;102312.22;1041298;28;20307;-83
2022/06/14 00:38:19;;;;;;;10.48;3.55;;;;;;;7.75;94.40;102307.16;1047444;28;20664;-84
2022/06/14 00:38:51;;;;;;;17.00;3.63;;;;;;;7.55;94.53;102308.41;1049887;28;20487;-84
2022/06/14 00:39:23;;;;;;;8.25;2.85;;;;;;;7.59;94.59;102309.75;1048920;28;20804;-84
2022/06/14 00:39:54;;;;;;;7.03;3.47;;;;;;;7.46;94.49;102305.91;1048868;28;20291;-84
2022/06/14 00:40:30;;;;;;;12.35;4.07;;;;;;;7.42;95.14;102303.56;1047667;28;20301;-84
2022/06/14 00:41:03;;;;;;;15.52;4.30;;;;;;;7.36;95.30;102303.34;1041675;28;20300;-84
2022/06/14 00:41:44;;;;;;;9.27;4.30;;;;;;;7.27;95.38;102306.97;1048691;28;20375;-84
2022/06/14 00:42:19;;;;;;;14.63;4.25;;;;;;;7.46;95.85;102304.09;1047647;28;20310;-84
2022/06/14 00:42:51;;;;;;;7.38;3.67;;;;;;;7.87;95.74;102304.19;1051697;28;20414;-84
2022/06/14 00:43:23;;;;;;;6.93;3.55;;;;;;;7.54;95.53;102297.97;1051545;28;20298;-84
2022/06/14 00:43:55;;;;;;;6.00;3.75;;;;;;;7.37;95.27;102303.19;1044035;28;20390;-83
2022/06/14 00:44:28;;;;;;;4.35;3.50;;;;;;;7.69;95.58;102301.69;1045860;28;20299;-84
2022/06/14 00:45:23;;;;;;;9.25;3.13;;;;;;;7.82;94.80;102299.38;1050231;28;20306;-84
2022/06/14 00:46:10;;;;;;;7.22;3.58;;;;;;;7.56;95.23;102291.50;1058958;27;20304;-84
2022/06/14 00:46:54;;;;;;;8.75;3.78;;;;;;;7.32;95.12;102302.03;1056849;28;20399;-84
2022/06/14 00:47:25;;;;;;;8.73;3.30;;;;;;;7.46;95.46;102301.44;1051265;28;20309;-83
2022/06/14 00:48:03;;;;;;;5.53;3.65;;;;;;;7.63;95.60;102303.13;1053520;28;20302;-83
2022/06/14 00:48:35;;;;;;;9.50;3.50;;;;;;;7.46;95.14;102303.25;1050236;28;20290;-84
2022/06/14 00:49:16;;;;;;;13.55;4.22;;;;;;;7.39;95.88;102305.69;1049146;28;20302;-84
2022/06/14 00:49:51;;;;;;;9.40;3.38;;;;;;;7.39;96.03;102305.69;1047857;28;20288;-84
2022/06/14 00:50:28;;;;;;;7.32;3.63;;;;;;;7.36;96.25;102306.00;1047478;28;20044;-84
2022/06/14 00:51:06;;;;;;;5.50;3.38;;;;;;;7.09;96.56;102310.50;1051475;28;20787;-84
2022/06/14 00:51:46;;;;;;;9.82;3.70;;;;;;;6.96;96.97;102307.47;1047589;28;20302;-84
2022/06/14 00:52:19;;;;;;;6.63;4.05;;;;;;;7.34;97.05;102303.53;1053767;28;20313;-83
2022/06/14 00:52:55;;;;;;;5.28;3.33;;;;;;;7.20;97.21;102300.66;1055748;28;20039;-83
2022/06/14 00:53:37;;;;;;;9.32;3.45;;;;;;;6.97;97.02;102306.47;1047896;28;20294;-83
2022/06/14 00:54:21;;;;;;;6.28;3.10;;;;;;;6.91;97.27;102308.94;1052173;28;20784;-83
2022/06/14 00:54:56;;;;;;;6.60;3.22;;;;;;;7.09;97.81;102310.50;1058336;28;20293;-84
2022/06/14 00:55:38;;;;;;;6.95;3.90;;;;;;;7.03;97.36;102308.50;1051923;28;20298;-84
2022/06/14 00:56:42;;;;;;;7.05;3.58;;;;;;;7.39;97.27;102300.38;1051690;28;20290;-84
2022/06/14 00:57:18;;;;;;;6.82;2.90;;;;;;;7.64;96.70;102312.75;1057948;27;20346;-84
2022/06/14 00:57:53;;;;;;;7.32;3.40;;;;;;;7.75;96.58;102307.16;1051486;28;20301;-84
2022/06/14 00:58:28;;;;;;;4.00;3.03;;;;;;;7.30;95.93;102306.66;1050724;28;20294;-83
2022/06/14 00:59:06;;;;;;;6.85;3.22;;;;;;;7.29;96.17;102307.66;1049966;28;20877;-83
2022/06/14 00:59:48;;;;;;;7.53;2.53;;;;;;;7.35;96.58;102307.84;1047709;28;20313;-83
2022/06/14 01:00:24;;;;;;;9.20;3.05;;;;;;;7.34;96.79;102308.81;1047387;28;20291;-83
2022/06/14 01:01:00;;;;;;;8.65;3.60;;;;;;;7.26;96.58;102300.00;1046099;28;20385;-83
2022/06/14 01:01:36;;;;;;;6.38;3.42;;;;;;;7.21;96.66;102315.56;1046446;28;20344;-84
2022/06/14 01:02:21;;;;;;;7.60;3.28;;;;;;;7.49;97.31;102306.41;1045796;28;20314;-83
2022/06/14 01:02:54;;;;;;;8.35;3.72;;;;;;;7.59;96.75;102312.41;1043289;28;20688;-83
2022/06/14 01:03:34;;;;;;;6.68;3.42;;;;;;;7.53;97.11;102315.72;1043355;28;20787;-84
2022/06/14 01:04:28;;;;;;;7.70;3.50;;;;;;;7.25;96.70;102319.56;1051025;28;20806;-83
2022/06/14 01:05:02;;;;;;;4.45;3.30;;;;;;;7.15;97.07;102309.06;1053274;28;20313;-84
2022/06/14 01:06:40;;;;;;;8.23;3.20;;;;;;;6.87;97.08;102319.00;1051782;28;20301;-84
2022/06/14 01:07:26;;;;;;;6.97;2.92;;;;;;;6.76;97.14;102311.31;1048563;28;20310;-83
2022/06/14 01:07:58;;;;;;;5.72;3.72;;;;;;;6.89;97.58;102314.38;1047423;28;20361;-84
2022/06/14 01:08:30;;;;;;;7.38;3.65;;;;;;;7.40;97.84;102307.38;1042354;28;20864;-83
2022/06/14 01:09:09;;;;;;;7.63;4.18;;;;;;;7.50;97.21;102310.72;1046004;28;20303;-83
2022/06/14 01:09:50;;;;;;;6.13;3.72;;;;;;;7.33;96.55;102308.97;1050656;28;21631;-83
2022/06/14 01:10:30;;;;;;;9.25;3.50;;;;;;;6.86;96.81;102309.41;1054836;28;20301;-84
2022/06/14 01:11:04;;;;;;;4.03;3.28;;;;;;;7.25;97.04;102308.94;1051653;28;20052;-83
2022/06/14 01:11:43;;;;;;;6.93;3.25;;;;;;;7.22;97.06;102299.50;1044544;28;20041;-84
2022/06/14 01:12:22;;;;;;;10.82;4.47;;;;;;;7.00;96.59;102308.81;1045528;28;20307;-84
2022/06/14 01:12:58;;;;;;;8.57;3.80;;;;;;;7.04;96.71;102302.22;1042591;28;20304;-84
2022/06/14 01:13:30;;;;;;;7.70;3.22;;;;;;;7.06;96.94;102304.69;1053573;28;20301;-84
2022/06/14 01:14:03;;;;;;;8.88;3.85;;;;;;;6.89;97.01;102301.16;1047710;28;20307;-83
2022/06/14 01:14:42;;;;;;;5.45;2.97;;;;;;;6.78;97.03;102296.09;1053353;28;20301;-83
2022/06/14 01:15:27;;;;;;;10.18;3.60;;;;;;;6.70;97.48;102299.53;1049993;28;20321;-84
2022/06/14 01:15:58;;;;;;;7.55;3.33;;;;;;;6.76;97.83;102290.13;1047633;28;20302;-83
2022/06/14 01:16:31;;;;;;;8.38;3.33;;;;;;;6.85;98.10;102306.88;1055973;28;20296;-84
2022/06/14 01:17:03;;;;;;;6.47;3.58;;;;;;;6.85;98.29;102302.44;1055742;28;20304;-84
2022/06/14 01:17:43;;;;;;;6.82;3.30;;;;;;;6.78;97.89;102304.03;1051637;28;20297;-83
2022/06/14 01:18:15;;;;;;;15.95;3.65;;;;;;;6.91;98.37;102306.28;1051398;28;20305;-83
2022/06/14 01:18:47;;;;;;;5.95;3.00;;;;;;;6.79;97.96;102305.69;1050380;28;20498;-84
2022/06/14 01:19:22;;;;;;;7.80;3.78;;;;;;;6.83;97.96;102305.22;1056172;28;20296;-84
2022/06/14 01:19:54;;;;;;;6.75;3.55;;;;;;;6.86;97.76;102297.97;1050697;28;20305;-84
2022/06/14 01:20:26;;;;;;;6.55;3.45;;;;;;;6.86;98.04;102309.41;1047506;28;20317;-83
2022/06/14 01:20:58;;;;;;;6.90;3.78;;;;;;;6.87;98.21;102305.78;1048668;28;20301;-83
2022/06/14 01:21:30;;;;;;;9.73;3.58;;;;;;;7.01;98.05;102299.03;1051693;28;20294;-83
2022/06/14 01:22:01;;;;;;;6.97;3.75;;;;;;;6.95;98.21;102291.72;1051573;28;20687;-83
2022/06/14 01:22:34;;;;;;;6.63;3.70;;;;;;;7.00;98.84;102290.28;1056590;28;20297;-83
2022/06/14 01:23:08;;;;;;;8.48;4.13;;;;;;;7.43;98.51;102284.03;1049610;28;20691;-84
2022/06/14 01:23:40;;;;;;;6.85;3.40;;;;;;;7.62;98.38;102290.88;1047343;28;20306;-83
2022/06/14 01:24:11;;;;;;;14.00;4.10;;;;;;;7.61;97.47;102294.50;1047083;28;20302;-83
2022/06/14 01:24:43;;;;;;;8.35;4.55;;;;;;;7.37;97.49;102291.75;1045167;28;20362;-83
2022/06/14 01:25:15;;;;;;;9.15;3.92;;;;;;;7.60;97.43;102292.84;1043446;28;20311;-84
2022/06/14 01:25:50;;;;;;;5.88;3.35;;;;;;;7.77;97.26;102292.91;1046907;28;20301;-83
2022/06/14 01:26:25;;;;;;;7.60;3.58;;;;;;;7.53;97.47;102291.84;1044186;28;20339;-84
2022/06/14 01:26:57;;;;;;;7.35;3.75;;;;;;;7.25;96.38;102290.41;1048757;28;20299;-83
2022/06/14 01:27:31;;;;;;;5.43;3.15;;;;;;;6.92;96.65;102292.88;1049403;28;20294;-83
2022/06/14 01:28:04;;;;;;;4.68;3.15;;;;;;;6.79;96.54;102295.09;1047423;28;20612;-83
2022/06/14 01:28:36;;;;;;;5.78;3.10;;;;;;;6.82;96.80;102294.78;1046612;28;20706;-83
2022/06/14 01:29:08;;;;;;;3.90;2.63;;;;;;;6.88;96.72;102299.47;1044725;28;20681;-84
2022/06/14 01:29:43;;;;;;;3.05;2.53;;;;;;;6.79;96.91;102297.75;1048168;28;20318;-83
2022/06/14 01:30:21;;;;;;;9.70;3.00;;;;;;;6.69;96.94;102299.69;1051532;28;20305;-84
2022/06/14 01:30:53;;;;;;;8.73;3.20;;;;;;;6.70;97.45;102298.69;1047449;28;20369;-84
2022/06/14 01:31:27;;;;;;;5.43;3.50;;;;;;;6.50;97.72;102293.56;1049203;28;20724;-83
2022/06/14 01:32:01;;;;;;;4.75;2.80;;;;;;;6.47;97.80;102296.53;1049410;28;20874;-83
2022/06/14 01:32:44;;;;;;;4.78;2.95;;;;;;;6.44;98.16;102302.13;1049485;28;20361;-83
2022/06/14 01:33:24;;;;;;;5.50;3.28;;;;;;;6.72;98.68;102302.00;1046881;28;20301;-83
2022/06/14 01:33:59;;;;;;;8.63;3.20;;;;;;;7.15;98.41;102292.34;1045857;28;20314;-83
2022/06/14 01:34:32;;;;;;;9.75;3.00;;;;;;;6.86;97.67;102298.81;1047416;28;20064;-83
2022/06/14 01:35:10;;;;;;;7.15;3.70;;;;;;;7.25;98.14;102293.06;1041939;28;20307;-83
2022/06/14 01:35:45;;;;;;;5.47;3.17;;;;;;;6.99;97.41;102299.22;1043458;28;20307;-83
2022/06/14 01:36:29;;;;;;;8.45;3.55;;;;;;;7.03;97.39;102295.25;1045458;28;20291;-84
2022/06/14 01:37:01;;;;;;;7.38;3.40;;;;;;;6.65;97.16;102293.03;1047521;28;20313;-84
2022/06/14 01:37:33;;;;;;;4.63;3.40;;;;;;;6.57;97.46;102290.31;1055830;28;20305;-84
2022/06/14 01:38:08;;;;;;;7.38;3.53;;;;;;;6.57;97.82;102287.66;1059549;28;20300;-83
2022/06/14 01:38:42;;;;;;;4.28;3.03;;;;;;;6.65;97.89;102285.91;1051657;28;20815;-83
2022/06/14 01:39:15;;;;;;;6.40;3.78;;;;;;;6.66;97.81;102287.56;1043263;28;20384;-84
2022/06/14 01:39:47;;;;;;;7.43;3.03;;;;;;;6.71;98.50;102289.75;1045204;28;20310;-84
2022/06/14 01:40:21;;;;;;;4.80;3.08;;;;;;;6.73;98.21;102283.31;1047197;28;20510;-84
2022/06/14 01:41:30;;;;;;;7.70;3.97;;;;;;;6.58;98.13;102286.69;1046098;28;20748;-84
2022/06/14 01:42:16;;;;;;;3.45;2.58;;;;;;;6.67;98.80;102291.88;1054732;28;20314;-84
2022/06/14 01:43:02;;;;;;;4.35;2.65;;;;;;;6.87;98.73;102281.94;1054812;28;20366;-84
2022/06/14 01:43:44;;;;;;;4.97;3.08;;;;;;;6.99;98.66;102283.31;1045883;28;20326;-82
2022/06/14 01:44:39;;;;;;;6.82;3.33;;;;;;;7.27;98.21;102285.78;1052627;28;20302;-81
2022/06/14 01:45:41;;;;;;;6.35;3.00;;;;;;;6.95;98.18;102289.91;1052119;28;20316;-81
2022/06/14 01:46:24;;;;;;;4.28;3.05;;;;;;;7.20;97.84;102284.75;1057029;28;20039;-82
2022/06/14 01:47:04;;;;;;;4.45;3.22;;;;;;;7.30;97.16;102285.44;1059609;27;20382;-82
2022/06/14 01:47:41;;;;;;;6.70;2.90;;;;;;;6.86;96.34;102288.22;1062234;27;20291;-82
2022/06/14 01:48:19;;;;;;;4.22;3.00;;;;;;;6.78;96.64;102290.78;1059664;27;20500;-83
2022/06/14 01:52:31;;;;;;;5.10;2.88;;;;;;;6.46;97.25;102275.50;1060059;28;20047;-84
2022/06/14 01:53:18;;;;;;;3.38;2.60;;;;;;;7.11;96.91;102276.75;1059580;28;20717;-83
2022/06/14 01:53:50;;;;;;;7.78;3.70;;;;;;;7.26;96.28;102274.34;1056001;28;20818;-81
2022/06/14 01:54:56;;;;;;;5.22;3.35;;;;;;;7.20;95.82;102266.19;1059768;28;20332;-82
2022/06/14 01:55:42;;;;;;;8.10;3.85;;;;;;;6.65;95.25;102275.31;1050376;28;20656;-82
2022/06/14 01:56:15;;;;;;;4.75;3.00;;;;;;;6.47;95.68;102272.72;1055166;28;20301;-82
2022/06/14 01:57:22;;;;;;;6.93;3.33;;;;;;;6.39;95.95;102267.34;1047631;28;20298;-82
2022/06/14 01:58:00;;;;;;;10.43;3.08;;;;;;;6.25;96.85;102273.19;1027769;28;20302;-82
2022/06/14 01:59:03;;;;;;;5.20;2.88;;;;;;;6.22;97.36;102278.78;1033228;28;20299;-82
2022/06/14 01:59:45;;;;;;;5.55;3.17;;;;;;;6.16;97.62;102274.94;1046855;28;20796;-82
2022/06/14 02:00:24;;;;;;;7.40;3.50;;;;;;;6.08;97.98;102277.53;1055572;28;20675;-82
2022/06/14 02:01:11;;;;;;;7.90;3.38;;;;;;;6.10;98.49;102274.72;1059973;27;20293;-81
2022/06/14 02:02:01;;;;;;;3.70;3.30;;;;;;;6.06;98.68;102274.19;1059658;28;20288;-82
2022/06/14 02:02:42;;;;;;;6.15;2.85;;;;;;;6.13;99.08;102277.06;1061043;27;20296;-82
2022/06/14 02:04:39;;;;;;;5.88;3.42;;;;;;;6.23;99.55;102277.78;1047248;28;20349;-82
2022/06/14 02:05:27;;;;;;;3.65;3.05;;;;;;;6.30;99.55;102270.94;1058973;27;20718;-82
2022/06/14 02:06:01;;;;;;;5.57;3.28;;;;;;;6.24;99.69;102270.69;1058098;27;20301;-82
2022/06/14 02:06:38;;;;;;;7.30;4.20;;;;;;;6.36;99.50;102274.78;1060894;27;20303;-82
2022/06/14 02:07:24;;;;;;;5.38;3.90;;;;;;;6.32;99.50;102268.97;1058724;27;20391;-80
2022/06/14 02:08:08;;;;;;;8.93;3.60;;;;;;;6.50;99.64;102277.69;1055666;28;20289;-82
2022/06/14 02:08:55;;;;;;;4.70;2.85;;;;;;;6.42;99.45;102264.41;1049874;28;20291;-82
2022/06/14 02:09:33;;;;;;;9.77;3.70;;;;;;;6.48;99.27;102273.53;1048735;28;20298;-84
2022/06/14 02:10:25;;;;;;;7.90;4.60;;;;;;;6.50;98.98;102272.41;1047856;28;20341;-83
2022/06/14 02:11:12;;;;;;;5.57;3.83;;;;;;;6.31;98.65;102269.94;1048401;28;20299;-83
2022/06/14 02:11:43;;;;;;;5.55;3.63;;;;;;;6.35;98.98;102267.81;1045929;28;20303;-83
2022/06/14 02:12:19;;;;;;;6.85;3.33;;;;;;;6.19;98.60;102268.50;1052412;28;20290;-84
2022/06/14 02:13:11;;;;;;;8.07;3.72;;;;;;;6.06;98.90;102268.91;1055478;28;20297;-83
2022/06/14 02:13:53;;;;;;;5.88;3.20;;;;;;;6.70;98.94;102277.50;1057687;27;20296;-84
2022/06/14 02:14:34;;;;;;;8.07;4.47;;;;;;;6.54;98.51;102274.72;1048929;28;20303;-84
2022/06/14 02:15:22;;;;;;;9.15;3.90;;;;;;;6.18;98.22;102274.78;1048469;28;20309;-84
2022/06/14 02:16:23;;;;;;;9.13;3.40;;;;;;;6.16;98.86;102274.09;1048309;28;20382;-84
2022/06/14 02:17:03;;;;;;;8.35;3.92;;;;;;;6.27;99.25;102275.69;1049459;28;20298;-84
2022/06/14 02:17:38;;;;;;;11.20;3.83;;;;;;;6.27;99.20;102273.84;1053685;27;20411;-83
2022/06/14 02:18:14;;;;;;;3.88;3.03;;;;;;;6.13;99.01;102272.59;1054479;28;20289;-83
2022/06/14 02:18:52;;;;;;;7.93;3.97;;;;;;;5.99;99.37;102272.28;1048361;28;20397;-84
2022/06/14 02:19:31;;;;;;;6.63;3.47;;;;;;;6.10;99.42;102274.72;1050692;28;20283;-84
2022/06/14 02:20:25;;;;;;;5.35;3.40;;;;;;;6.20;99.48;102270.16;1055763;28;20674;-84
2022/06/14 02:21:09;;;;;;;5.57;3.42;;;;;;;6.19;99.53;102268.50;1050842;27;20279;-84
2022/06/14 02:21:44;;;;;;;9.18;3.63;;;;;;;6.20;99.53;102265.72;1052136;28;20782;-84
2022/06/14 02:22:22;;;;;;;9.05;4.10;;;;;;;6.07;99.27;102275.84;1048174;28;20299;-84
2022/06/14 02:23:00;;;;;;;11.13;3.58;;;;;;;6.17;99.61;102283.69;1046991;28;20290;-84
2022/06/14 02:23:37;;;;;;;3.78;3.47;;;;;;;6.50;99.82;102269.75;1051765;28;20732;-84
2022/06/14 02:24:12;;;;;;;9.55;3.58;;;;;;;6.74;99.25;102273.56;1050848;28;20290;-84
2022/06/14 02:24:49;;;;;;;7.30;4.15;;;;;;;6.67;98.44;102272.53;1052183;28;20313;-84
2022/06/14 02:25:27;;;;;;;8.77;3.92;;;;;;;6.71;98.56;102284.47;1050835;28;20286;-83
2022/06/14 02:26:02;;;;;;;10.30;4.30;;;;;;;6.67;98.39;102276.00;1045633;28;20311;-82
2022/06/14 02:26:39;;;;;;;8.00;4.30;;;;;;;6.70;97.52;102277.50;1042190;28;20368;-82
2022/06/14 02:27:28;;;;;;;6.18;3.83;;;;;;;6.77;97.23;102279.38;1039921;28;20296;-81
2022/06/14 02:28:11;;;;;;;8.00;3.90;;;;;;;6.78;97.44;102277.53;1048235;28;20484;-81
2022/06/14 02:28:53;;;;;;;7.82;3.75;;;;;;;6.89;97.09;102279.97;1043788;28;20342;-81
2022/06/14 02:29:31;;;;;;;7.38;3.53;;;;;;;6.45;96.41;102279.97;1047765;28;20302;-81
2022/06/14 02:30:25;;;;;;;7.70;3.55;;;;;;;6.21;96.70;102277.13;1047773;28;20349;-81
2022/06/14 02:31:04;;;;;;;7.78;3.80;;;;;;;6.39;97.01;102280.59;1052791;28;20313;-81
2022/06/14 02:31:39;;;;;;;6.55;4.00;;;;;;;6.60;97.16;102279.44;1047439;28;20317;-81
2022/06/14 02:32:16;;;;;;;7.88;4.18;;;;;;;6.88;97.35;102280.94;1047955;28;20416;-81
2022/06/14 02:33:12;;;;;;;8.77;4.13;;;;;;;7.06;96.79;102279.03;1047606;28;20313;-81
2022/06/14 02:33:58;;;;;;;6.03;3.42;;;;;;;6.63;96.03;102279.13;1055509;27;20308;-81
2022/06/14 02:34:37;;;;;;;10.15;4.30;;;;;;;6.29;96.02;102273.72;1056192;28;20377;-81
2022/06/14 02:35:18;;;;;;;7.05;4.68;;;;;;;5.99;96.52;102274.94;1050969;28;20300;-83
2022/06/14 02:35:54;;;;;;;;;;;;;;;6.17;97.19;102279.25;1046541;28;20299;-82
2022/06/14 02:36:36;;;;;;;4.47;3.72;;;;;;;6.26;97.34;102284.59;1057044;27;19919;-82
2022/06/14 02:37:20;;;;;;;6.85;3.60;;;;;;;6.30;97.64;102281.53;1055038;28;20305;-83
2022/06/14 02:38:17;;;;;;;7.32;4.28;;;;;;;6.60;97.40;102282.06;1052972;28;20648;-83
2022/06/14 02:38:55;;;;;;;7.63;3.70;;;;;;;6.22;97.54;102283.25;1052600;28;20655;-84
2022/06/14 02:39:33;;;;;;;7.75;4.05;;;;;;;6.19;97.61;102281.75;1048642;28;20672;-84
2022/06/14 02:40:09;;;;;;;9.38;4.20;;;;;;;6.15;98.07;102277.75;1050649;28;20294;-83
2022/06/14 02:41:07;;;;;;;7.45;4.22;;;;;;;6.18;97.88;102280.06;1048457;28;20299;-83
2022/06/14 02:41:55;;;;;;;7.47;3.40;;;;;;;6.31;98.38;102274.41;1044248;28;20306;-83
2022/06/14 02:42:41;;;;;;;6.32;3.50;;;;;;;6.34;98.78;102272.28;1052177;28;20286;-83
2022/06/14 02:43:41;;;;;;;6.72;3.40;;;;;;;6.38;98.58;102280.75;1047961;28;20325;-83
2022/06/14 02:44:23;;;;;;;6.03;3.42;;;;;;;6.25;98.81;102273.19;1049728;28;20286;-83
2022/06/14 02:45:14;;;;;;;5.05;3.60;;;;;;;6.07;98.77;102273.22;1049978;28;20363;-82
2022/06/14 02:45:51;;;;;;;6.72;3.72;;;;;;;6.04;98.94;102267.41;1044188;28;20310;-83
2022/06/14 02:46:40;;;;;;;7.90;3.90;;;;;;;6.22;98.86;102273.50;1046611;28;20581;-83
2022/06/14 02:47:49;;;;;;;9.00;3.58;;;;;;;6.09;98.70;102273.06;1052323;28;20815;-83
2022/06/14 02:48:26;;;;;;;6.47;3.72;;;;;;;6.05;98.98;102266.41;1039492;28;20311;-83
2022/06/14 02:49:11;;;;;;;5.82;3.38;;;;;;;6.07;99.09;102261.81;1043718;28;20307;-83
2022/06/14 02:49:47;;;;;;;6.13;3.33;;;;;;;6.04;99.01;102270.03;1041423;28;20311;-83
2022/06/14 02:50:28;;;;;;;5.97;3.38;;;;;;;6.45;98.99;102272.03;1039765;28;20299;-84
2022/06/14 02:51:02;;;;;;;4.63;3.33;;;;;;;6.53;98.34;102270.44;1049089;28;20329;-83
2022/06/14 02:51:46;;;;;;;5.32;3.65;;;;;;;6.01;97.89;102270.31;1057158;27;20104;-83
2022/06/14 02:52:34;;;;;;;6.10;3.85;;;;;;;6.08;98.85;102271.41;1058466;27;20396;-83
2022/06/14 02:53:18;;;;;;;4.97;3.22;;;;;;;6.08;98.75;102266.94;1056987;28;20312;-80
2022/06/14 02:53:54;;;;;;;5.53;3.60;;;;;;;6.39;98.33;102267.34;1052445;28;20294;-83
2022/06/14 02:54:33;;;;;;;4.60;3.53;;;;;;;6.27;98.56;102276.50;1051901;28;20301;-83
2022/06/14 02:55:11;;;;;;;10.68;4.20;;;;;;;6.12;98.22;102267.47;1049760;28;20290;-83
2022/06/14 02:56:19;;;;;;;5.95;4.47;;;;;;;6.04;98.67;102264.75;1048186;28;20337;-83
2022/06/14 02:56:59;;;;;;;6.60;3.47;;;;;;;6.29;98.63;102258.66;1048830;28;20366;-83
2022/06/14 02:57:50;;;;;;;5.38;3.88;;;;;;;6.11;98.11;102265.81;1054149;28;20317;-83
2022/06/14 02:58:31;;;;;;;5.88;3.42;;;;;;;6.12;98.46;102256.88;1050629;28;20040;-84
2022/06/14 02:59:10;;;;;;;8.77;4.20;;;;;;;6.09;98.44;102260.66;1056359;28;20402;-83
2022/06/14 02:59:49;;;;;;;7.60;3.75;;;;;;;6.09;98.46;102257.19;1049463;28;20045;-83
2022/06/14 03:00:30;;;;;;;7.55;3.63;;;;;;;6.00;98.48;102258.91;1043829;28;20789;-83
2022/06/14 03:01:08;;;;;;;5.63;4.35;;;;;;;5.87;98.79;102251.34;1047849;28;20291;-83
2022/06/14 03:01:47;;;;;;;7.38;4.18;;;;;;;6.10;98.15;102254.38;1051866;28;20683;-83
2022/06/14 03:02:25;;;;;;;17.08;4.10;;;;;;;6.21;98.55;102255.97;1052396;28;20305;-83
2022/06/14 03:03:22;;;;;;;7.32;3.60;;;;;;;6.30;98.40;102255.06;1052115;28;20660;-84
2022/06/14 03:03:56;;;;;;;8.18;4.57;;;;;;;6.65;98.34;102258.63;1046133;28;20337;-83
2022/06/14 03:04:34;;;;;;;8.30;3.88;;;;;;;6.74;97.73;102258.50;1052242;28;20873;-83
2022/06/14 03:05:13;;;;;;;11.27;4.25;;;;;;;6.68;97.39;102259.13;1051919;28;20305;-83
2022/06/14 03:05:51;;;;;;;5.22;4.10;;;;;;;6.14;96.74;102254.91;1054838;28;20301;-83
2022/06/14 03:06:57;;;;;;;4.50;3.25;;;;;;;5.97;96.83;102253.09;1050580;28;20302;-83